Time;durP1;ratioP1;P1;durP2;ratioP2;P2;SDS_P1;SDS_P2;PMS_P1;PMS_P2;Temp;Humidity;BMP_temperature;BMP_pressure;BME280_temperature;BME280_humidity;BME280_pressure;Samples;Min_cycle;Max_cycle;Signal;HPM_P1;HPM_P2
2022/05/20 00:02:18;;;;;;;0.05;0.05;;;20.60;99.90;;;;;;4933829;29;20095;-68
2022/05/20 00:04:44;;;;;;;0.43;0.40;;;20.60;99.90;;;;;;4937399;28;20115;-70
2022/05/20 00:07:10;;;;;;;0.38;0.38;;;20.60;99.90;;;;;;4970408;28;20380;-70
2022/05/20 00:09:37;;;;;;;1.40;0.85;;;20.60;99.90;;;;;;4971853;28;20049;-70
2022/05/20 00:12:05;;;;;;;0.20;0.20;;;20.50;99.90;;;;;;4972155;28;20527;-70
2022/05/20 00:14:32;;;;;;;0.08;0.08;;;20.40;99.90;;;;;;4971902;28;20489;-70
2022/05/20 00:17:04;;;;;;;0.00;0.00;;;20.30;99.90;;;;;;4971892;28;20023;-70
2022/05/20 00:19:30;;;;;;;0.08;0.08;;;20.00;99.90;;;;;;4955504;28;20091;-69
2022/05/20 00:21:56;;;;;;;1.35;0.65;;;19.70;99.90;;;;;;4971922;28;20035;-70
2022/05/20 00:24:22;;;;;;;0.00;0.00;;;19.60;99.90;;;;;;4972007;28;20041;-69
2022/05/20 00:26:48;;;;;;;0.00;0.00;;;19.30;99.90;;;;;;4972097;28;20479;-69
2022/05/20 00:29:14;;;;;;;0.20;0.20;;;19.40;99.90;;;;;;4954411;28;20047;-69
2022/05/20 00:31:39;;;;;;;0.75;0.40;;;19.50;99.90;;;;;;4972220;28;20050;-70
2022/05/20 00:34:05;;;;;;;0.28;0.28;;;19.60;99.90;;;;;;4954203;28;20038;-69
2022/05/20 00:36:31;;;;;;;0.10;0.08;;;19.60;99.90;;;;;;4971703;28;20189;-68
2022/05/20 00:38:56;;;;;;;0.00;0.00;;;19.50;99.90;;;;;;4971543;28;20042;-68
2022/05/20 00:41:22;;;;;;;0.30;0.30;;;19.50;99.90;;;;;;4954305;28;20026;-69
2022/05/20 00:43:50;;;;;;;0.25;0.25;;;19.60;99.90;;;;;;4971579;28;20070;-69
2022/05/20 00:46:23;;;;;;;1.95;1.13;;;19.70;99.90;;;;;;4954644;28;20031;-69
2022/05/20 00:49:04;;;;;;;1.08;0.75;;;19.70;99.90;;;;;;4954381;28;20669;-69
2022/05/20 00:51:38;;;;;;;1.98;0.57;;;19.70;99.90;;;;;;4955504;28;20035;-69
2022/05/20 00:54:13;;;;;;;0.00;0.00;;;19.80;99.90;;;;;;4954570;28;20038;-68
2022/05/20 00:57:00;;;;;;;0.10;0.10;;;19.90;99.90;;;;;;4954701;28;20386;-69
2022/05/20 00:59:29;;;;;;;0.43;0.32;;;19.90;99.90;;;;;;4938650;28;20019;-69
2022/05/20 01:02:00;;;;;;;1.20;1.10;;;20.00;99.90;;;;;;4971544;28;20034;-69
2022/05/20 01:04:26;;;;;;;0.00;0.00;;;20.10;99.90;;;;;;4961558;28;20035;-69
2022/05/20 01:06:53;;;;;;;0.20;0.20;;;20.20;99.90;;;;;;4945536;28;20067;-69
2022/05/20 01:09:19;;;;;;;0.35;0.35;;;20.30;99.90;;;;;;4934325;29;20039;-69
2022/05/20 01:11:45;;;;;;;0.43;0.43;;;20.40;99.90;;;;;;4931605;29;20051;-69
2022/05/20 01:14:18;;;;;;;0.38;0.38;;;20.30;99.90;;;;;;4915832;29;20493;-69
2022/05/20 01:16:44;;;;;;;0.20;0.20;;;20.30;99.90;;;;;;4930037;29;20070;-69
2022/05/20 01:19:18;;;;;;;2.08;0.80;;;20.30;99.90;;;;;;4915378;29;20480;-69
2022/05/20 01:21:44;;;;;;;0.50;0.50;;;20.40;99.90;;;;;;4916412;29;20039;-69
2022/05/20 01:24:10;;;;;;;0.13;0.13;;;20.40;99.90;;;;;;4932798;29;20028;-69
2022/05/20 01:26:35;;;;;;;2.28;0.88;;;20.40;99.90;;;;;;4932780;29;20044;-69
2022/05/20 01:29:01;;;;;;;0.10;0.10;;;20.20;99.90;;;;;;4932625;29;20043;-69
2022/05/20 01:31:27;;;;;;;0.32;0.22;;;20.40;99.90;;;;;;4932998;29;20118;-69
2022/05/20 01:33:53;;;;;;;0.65;0.65;;;20.50;99.90;;;;;;4932947;29;20063;-69
2022/05/20 01:36:24;;;;;;;0.77;0.52;;;20.60;99.90;;;;;;4959845;28;20061;-68
2022/05/20 01:38:52;;;;;;;0.77;0.68;;;20.70;99.90;;;;;;4930588;29;20078;-69
2022/05/20 01:41:46;;;;;;;4.18;0.65;;;20.70;99.90;;;;;;4942195;29;20023;-69
2022/05/20 01:44:21;;;;;;;0.38;0.38;;;20.80;99.90;;;;;;4934735;29;20039;-69
2022/05/20 01:47:05;;;;;;;2.92;0.38;;;20.70;99.90;;;;;;4951877;28;20039;-69
2022/05/20 01:49:46;;;;;;;0.10;0.10;;;20.30;99.90;;;;;;4919558;29;20440;-69
2022/05/20 01:52:33;;;;;;;0.22;0.22;;;20.40;99.90;;;;;;4935309;29;20055;-69
2022/05/20 01:55:23;;;;;;;0.22;0.20;;;20.50;99.90;;;;;;4952205;29;20042;-69
2022/05/20 01:58:01;;;;;;;0.75;0.55;;;20.40;99.90;;;;;;4951851;29;20047;-69
2022/05/20 02:00:32;;;;;;;0.00;0.00;;;20.40;99.90;;;;;;4951974;28;20039;-69
2022/05/20 02:03:17;;;;;;;0.07;0.07;;;20.20;99.90;;;;;;4938219;29;20050;-69
2022/05/20 02:06:08;;;;;;;0.30;0.17;;;20.30;99.90;;;;;;4964283;28;20368;-69
2022/05/20 02:08:47;;;;;;;0.00;0.00;;;20.30;99.90;;;;;;4947802;29;20102;-69
2022/05/20 02:11:25;;;;;;;0.28;0.28;;;20.00;99.90;;;;;;4954997;29;20119;-69
2022/05/20 02:14:00;;;;;;;0.30;0.30;;;20.10;99.90;;;;;;4987140;23;20078;-70
2022/05/20 02:16:36;;;;;;;1.98;1.20;;;19.80;99.90;;;;;;4993551;28;20097;-68
2022/05/20 02:20:06;;;;;;;0.70;0.43;;;19.80;99.90;;;;;;4993407;28;20034;-68
2022/05/20 02:22:39;;;;;;;0.15;0.13;;;19.90;99.90;;;;;;4991716;28;20045;-70
2022/05/20 02:25:10;;;;;;;1.40;0.95;;;19.80;99.90;;;;;;5027889;28;20623;-68
2022/05/20 02:27:45;;;;;;;1.85;0.47;;;19.60;99.90;;;;;;5012808;28;20026;-68
2022/05/20 02:30:18;;;;;;;0.40;0.40;;;19.60;99.90;;;;;;5027782;28;20038;-69
2022/05/20 02:32:56;;;;;;;0.28;0.28;;;19.50;99.90;;;;;;5027223;28;20034;-68
2022/05/20 02:35:23;;;;;;;0.00;0.00;;;19.40;99.90;;;;;;5027752;28;20418;-67
2022/05/20 02:37:49;;;;;;;6.03;1.00;;;19.20;99.90;;;;;;5011641;28;20022;-68
2022/05/20 02:40:18;;;;;;;0.40;0.25;;;19.20;99.90;;;;;;4994890;28;20030;-68
2022/05/20 02:42:45;;;;;;;0.25;0.20;;;19.40;99.90;;;;;;5012652;28;20351;-68
2022/05/20 02:45:11;;;;;;;1.85;1.70;;;19.30;99.90;;;;;;5012776;28;20101;-69
2022/05/20 02:47:37;;;;;;;0.98;0.60;;;19.50;99.90;;;;;;5011327;28;20026;-68
2022/05/20 02:50:10;;;;;;;1.05;0.77;;;19.40;99.90;;;;;;5010776;28;20144;-68
2022/05/20 02:52:37;;;;;;;3.25;0.17;;;19.10;99.90;;;;;;5012582;28;20105;-68
2022/05/20 02:55:04;;;;;;;0.50;0.50;;;19.00;99.90;;;;;;4994749;28;20022;-68
2022/05/20 02:57:30;;;;;;;1.27;0.65;;;19.10;99.90;;;;;;5012461;28;20100;-68
2022/05/20 03:05:25;;;;;;;0.80;0.50;;;19.10;99.90;;;;;;5012244;28;20036;-68
2022/05/20 03:07:50;;;;;;;0.63;0.55;;;19.10;99.90;;;;;;5012408;28;20026;-69
2022/05/20 03:10:16;;;;;;;0.63;0.50;;;19.20;99.90;;;;;;5011963;28;20034;-68
2022/05/20 03:12:43;;;;;;;0.55;0.55;;;19.20;99.90;;;;;;4993181;28;20033;-69
2022/05/20 03:15:12;;;;;;;0.20;0.20;;;19.10;99.90;;;;;;5010800;28;20038;-68
2022/05/20 03:17:39;;;;;;;0.22;0.22;;;19.20;99.90;;;;;;5010453;28;20615;-68
2022/05/20 03:20:08;;;;;;;0.22;0.22;;;19.30;99.90;;;;;;5010341;28;20022;-68
2022/05/20 03:22:36;;;;;;;0.40;0.35;;;19.20;99.90;;;;;;5010538;28;20493;-67
2022/05/20 03:25:04;;;;;;;0.20;0.20;;;19.20;99.90;;;;;;5010665;28;20030;-68
2022/05/20 03:27:31;;;;;;;0.30;0.30;;;19.10;99.90;;;;;;5011946;28;20160;-68
2022/05/20 03:29:56;;;;;;;0.45;0.45;;;19.20;99.90;;;;;;5010094;28;20026;-68
2022/05/20 03:32:22;;;;;;;0.57;0.57;;;19.20;99.90;;;;;;5010506;28;20033;-68
2022/05/20 03:34:48;;;;;;;0.00;0.00;;;19.20;99.90;;;;;;5010376;28;20121;-69
2022/05/20 03:37:14;;;;;;;0.73;0.60;;;19.20;99.90;;;;;;5011511;28;20030;-68
2022/05/20 03:39:39;;;;;;;1.60;0.88;;;19.30;99.90;;;;;;5010034;28;20026;-68
2022/05/20 03:42:06;;;;;;;0.25;0.22;;;19.10;99.90;;;;;;5011401;28;20077;-68
2022/05/20 03:44:32;;;;;;;2.33;1.17;;;19.20;99.90;;;;;;5008732;28;20052;-68
2022/05/20 03:46:58;;;;;;;0.00;0.00;;;19.30;99.90;;;;;;4991747;28;20499;-68
2022/05/20 03:49:28;;;;;;;2.00;0.85;;;19.40;99.90;;;;;;4990374;28;20026;-68
2022/05/20 03:51:55;;;;;;;10.82;1.40;;;19.30;99.90;;;;;;5006847;28;20046;-68
2022/05/20 03:54:25;;;;;;;2.85;1.00;;;19.20;99.90;;;;;;4991545;28;20026;-68
2022/05/20 03:56:51;;;;;;;0.00;0.00;;;19.30;99.90;;;;;;4990818;28;20026;-68
2022/05/20 03:59:17;;;;;;;0.57;0.20;;;19.50;99.90;;;;;;4974009;28;20077;-65
2022/05/20 04:01:59;;;;;;;1.13;1.02;;;19.70;99.90;;;;;;4995415;28;20030;-65
2022/05/20 04:04:33;;;;;;;0.75;0.63;;;19.70;99.90;;;;;;5002434;28;20022;-65
2022/05/20 04:07:05;;;;;;;0.35;0.22;;;19.80;99.90;;;;;;4991140;28;20040;-63
2022/05/20 04:09:31;;;;;;;2.80;2.60;;;19.70;99.90;;;;;;4989887;28;20479;-68
2022/05/20 04:12:00;;;;;;;1.73;1.55;;;19.60;99.90;;;;;;4994059;28;20190;-68
2022/05/20 04:14:28;;;;;;;0.10;0.10;;;19.30;99.90;;;;;;4990853;28;20067;-67
2022/05/20 04:17:00;;;;;;;1.08;0.98;;;19.10;99.90;;;;;;5009752;28;20482;-67
2022/05/20 04:19:30;;;;;;;0.28;0.25;;;19.30;99.90;;;;;;5009252;28;20040;-67
2022/05/20 04:22:07;;;;;;;0.00;0.00;;;19.40;99.90;;;;;;5002301;28;20364;-66
2022/05/20 04:24:33;;;;;;;5.25;3.40;;;19.30;99.90;;;;;;4999249;28;20064;-68
2022/05/20 04:26:59;;;;;;;0.25;0.25;;;19.40;99.90;;;;;;5000626;28;20053;-68
2022/05/20 04:29:25;;;;;;;0.75;0.55;;;19.40;99.90;;;;;;4941997;28;20046;-67
2022/05/20 04:31:52;;;;;;;0.30;0.30;;;19.50;99.90;;;;;;4990808;28;20049;-68
2022/05/20 04:34:18;;;;;;;0.35;0.35;;;19.60;99.90;;;;;;4990856;28;20129;-68
2022/05/20 04:36:45;;;;;;;0.13;0.13;;;19.60;99.90;;;;;;5007353;28;20022;-66
2022/05/20 04:39:11;;;;;;;1.17;0.40;;;19.70;99.90;;;;;;5008405;28;20120;-68
2022/05/20 04:47:14;;;;;;;0.00;0.00;;;20.20;99.90;;;;;;5010264;28;20477;-67
2022/05/20 04:49:42;;;;;;;0.40;0.30;;;20.40;99.90;;;;;;5008912;28;20037;-67
2022/05/20 04:52:08;;;;;;;4.72;1.88;;;20.50;99.90;;;;;;5010531;28;20037;-67
2022/05/20 04:54:49;;;;;;;6.10;0.85;;;20.60;99.90;;;;;;5008760;28;20051;-68
2022/05/20 04:57:43;;;;;;;0.35;0.32;;;20.50;99.90;;;;;;5009030;28;20500;-68
2022/05/20 05:00:12;;;;;;;1.60;1.27;;;20.10;99.90;;;;;;5008912;28;20121;-67
2022/05/20 05:02:39;;;;;;;0.40;0.40;;;20.10;99.90;;;;;;5010428;28;20477;-69
2022/05/20 05:05:08;;;;;;;0.30;0.28;;;20.10;99.90;;;;;;4997548;28;20036;-68
2022/05/20 05:07:43;;;;;;;0.13;0.13;;;20.00;99.90;;;;;;5008804;28;20033;-68
2022/05/20 05:10:12;;;;;;;0.68;0.68;;;20.20;99.90;;;;;;4993098;28;20034;-66
2022/05/20 05:12:38;;;;;;;0.80;0.50;;;20.20;99.90;;;;;;5010229;28;20045;-67
2022/05/20 05:15:05;;;;;;;0.30;0.30;;;20.10;99.90;;;;;;5009774;28;20029;-66
2022/05/20 05:20:21;;;;;;;0.05;0.05;;;20.70;99.90;;;;;;5009180;28;20033;-66
2022/05/20 05:22:50;;;;;;;0.00;0.00;;;20.90;99.90;;;;;;5009981;28;20033;-67
2022/05/20 05:25:18;;;;;;;1.20;0.52;;;20.80;99.90;;;;;;5008388;28;20022;-67
2022/05/20 05:27:44;;;;;;;1.17;1.08;;;21.00;99.90;;;;;;5010049;28;20112;-67
2022/05/20 05:30:14;;;;;;;0.30;0.30;;;21.10;99.90;;;;;;5008491;28;20116;-67
2022/05/20 05:32:41;;;;;;;0.03;0.03;;;21.10;99.90;;;;;;5008614;28;20037;-67
2022/05/20 05:35:18;;;;;;;0.73;0.73;;;21.30;99.90;;;;;;5008789;28;20069;-67
2022/05/20 05:37:44;;;;;;;1.88;1.33;;;20.90;99.90;;;;;;5012624;28;20599;-68
2022/05/20 05:40:14;;;;;;;0.35;0.35;;;20.90;99.90;;;;;;5010779;28;20104;-67
2022/05/20 05:42:42;;;;;;;0.67;0.67;;;21.10;99.90;;;;;;5007066;28;20028;-68
2022/05/20 05:45:10;;;;;;;1.13;1.02;;;21.20;99.90;;;;;;4994157;28;20391;-68
2022/05/20 05:47:36;;;;;;;0.85;0.70;;;21.20;99.90;;;;;;5007499;28;20029;-68
2022/05/20 05:50:03;;;;;;;1.25;1.15;;;20.90;99.90;;;;;;5012640;28;20088;-68
2022/05/20 05:52:29;;;;;;;1.92;1.38;;;20.90;99.90;;;;;;5012319;28;20117;-68
2022/05/20 05:54:54;;;;;;;4.00;1.60;;;21.10;99.90;;;;;;5012801;28;20117;-68
2022/05/20 05:57:20;;;;;;;0.52;0.47;;;21.20;99.90;;;;;;5011058;28;20022;-68
2022/05/20 05:59:46;;;;;;;0.20;0.20;;;21.10;99.90;;;;;;5012713;28;20033;-68
2022/05/20 06:02:11;;;;;;;0.55;0.50;;;21.10;99.90;;;;;;5005512;28;20113;-67
2022/05/20 06:04:37;;;;;;;1.95;1.55;;;21.20;99.90;;;;;;5009875;28;20046;-68
2022/05/20 06:07:05;;;;;;;1.75;0.82;;;21.10;99.90;;;;;;5012665;28;20069;-68
2022/05/20 06:09:31;;;;;;;1.13;0.98;;;20.60;99.90;;;;;;5010241;28;20038;-68
2022/05/20 06:11:57;;;;;;;0.20;0.20;;;20.20;99.90;;;;;;5012676;28;20038;-68
2022/05/20 06:14:23;;;;;;;0.22;0.22;;;20.40;99.90;;;;;;5012357;28;20441;-68
2022/05/20 06:16:48;;;;;;;2.83;1.85;;;20.60;99.90;;;;;;5012866;28;20527;-70
2022/05/20 06:19:14;;;;;;;0.73;0.65;;;20.60;99.90;;;;;;5009839;28;20108;-70
2022/05/20 06:21:40;;;;;;;1.33;1.23;;;20.40;99.90;;;;;;5010345;28;20026;-70
2022/05/20 06:24:08;;;;;;;1.33;1.13;;;20.60;99.90;;;;;;5009154;28;20401;-70
2022/05/20 06:26:37;;;;;;;1.73;1.13;;;20.60;99.90;;;;;;5011613;28;20038;-70
2022/05/20 06:29:05;;;;;;;2.22;1.70;;;20.10;99.90;;;;;;5011233;28;20034;-69
2022/05/20 06:31:31;;;;;;;2.10;0.75;;;20.20;99.90;;;;;;5012709;28;20391;-69
2022/05/20 06:34:00;;;;;;;0.55;0.52;;;20.30;99.90;;;;;;5010449;28;20056;-69
2022/05/20 06:41:57;;;;;;;1.00;1.00;;;20.40;99.90;;;;;;5005677;28;20022;-67
2022/05/20 06:44:24;;;;;;;1.67;0.93;;;20.60;99.90;;;;;;5012075;28;20394;-67
2022/05/20 06:46:50;;;;;;;2.00;0.50;;;20.60;99.90;;;;;;5006183;28;20405;-68
2022/05/20 06:49:17;;;;;;;1.63;0.70;;;20.70;99.90;;;;;;5007943;28;20026;-67
2022/05/20 06:51:42;;;;;;;0.55;0.50;;;20.80;99.90;;;;;;5010899;28;20038;-67
2022/05/20 06:54:11;;;;;;;0.25;0.25;;;20.90;99.90;;;;;;5011549;28;20042;-67
2022/05/20 06:56:38;;;;;;;2.63;0.85;;;20.90;99.90;;;;;;5010283;28;20112;-67
2022/05/20 06:59:06;;;;;;;0.77;0.77;;;21.10;99.90;;;;;;5011080;28;20034;-68
2022/05/20 07:01:32;;;;;;;0.10;0.10;;;21.00;99.90;;;;;;5006611;28;20048;-67
2022/05/20 07:03:58;;;;;;;0.10;0.10;;;21.20;99.90;;;;;;5004502;28;20475;-67
2022/05/20 07:06:26;;;;;;;0.52;0.50;;;21.40;99.90;;;;;;5005513;28;20410;-68
2022/05/20 07:08:53;;;;;;;1.77;0.70;;;21.60;99.90;;;;;;5006842;28;20109;-68
2022/05/20 07:11:23;;;;;;;0.03;0.03;;;21.70;99.90;;;;;;5012250;28;20041;-68
2022/05/20 07:13:54;;;;;;;1.20;0.63;;;21.80;99.90;;;;;;5009834;28;20414;-68
2022/05/20 07:16:21;;;;;;;0.45;0.45;;;21.90;99.90;;;;;;5010700;28;20387;-67
2022/05/20 07:18:47;;;;;;;0.20;0.20;;;22.00;99.90;;;;;;5011693;28;20034;-69
2022/05/20 07:21:13;;;;;;;1.25;0.80;;;21.90;99.90;;;;;;5010535;28;20030;-70
2022/05/20 07:23:39;;;;;;;0.93;0.63;;;22.00;99.90;;;;;;5011561;28;20034;-69
2022/05/20 07:26:06;;;;;;;0.45;0.45;;;22.20;99.90;;;;;;5010893;28;20038;-67
2022/05/20 07:28:33;;;;;;;0.22;0.22;;;22.30;99.90;;;;;;5011725;28;20121;-68
2022/05/20 07:30:59;;;;;;;1.20;1.10;;;22.60;99.90;;;;;;5010467;28;20026;-67
2022/05/20 07:33:25;;;;;;;10.77;0.52;;;22.60;99.90;;;;;;5010443;28;20045;-68
2022/05/20 07:35:51;;;;;;;0.30;0.30;;;22.50;99.90;;;;;;5006550;28;20574;-68
2022/05/20 07:38:16;;;;;;;1.85;0.75;;;22.40;99.90;;;;;;4992168;28;20034;-68
2022/05/20 07:40:43;;;;;;;1.52;0.85;;;22.50;99.90;;;;;;4990449;28;20022;-67
2022/05/20 07:43:10;;;;;;;3.40;1.27;;;22.50;99.90;;;;;;4992195;28;20038;-67
2022/05/20 07:45:35;;;;;;;0.47;0.47;;;22.40;99.90;;;;;;4992114;28;20049;-67
2022/05/20 07:48:01;;;;;;;2.60;0.65;;;22.70;99.90;;;;;;4991856;28;20038;-67
2022/05/20 07:50:27;;;;;;;0.68;0.60;;;22.70;99.90;;;;;;4990201;28;20033;-67
2022/05/20 07:55:45;;;;;;;7.93;2.88;;;22.50;99.90;;;;;;4990967;28;20026;-68
2022/05/20 07:58:15;;;;;;;0.77;0.70;;;22.70;99.90;;;;;;4990096;28;20062;-67
2022/05/20 08:00:41;;;;;;;0.50;0.50;;;22.70;99.90;;;;;;4990397;28;20070;-67
2022/05/20 08:03:10;;;;;;;0.70;0.57;;;22.90;99.90;;;;;;4991508;28;20041;-67
2022/05/20 08:05:36;;;;;;;1.17;1.02;;;23.00;99.90;;;;;;4999052;28;20041;-69
2022/05/20 08:08:06;;;;;;;0.90;0.47;;;23.10;99.90;;;;;;5010223;28;20552;-68
2022/05/20 08:10:35;;;;;;;2.20;1.58;;;23.20;99.90;;;;;;5009358;28;20037;-68
2022/05/20 08:13:03;;;;;;;8.38;0.82;;;23.20;99.90;;;;;;5022717;23;20083;-65
2022/05/20 08:15:31;;;;;;;0.85;0.63;;;23.40;99.90;;;;;;4999724;28;20038;-64
2022/05/20 08:17:57;;;;;;;2.78;1.08;;;23.40;99.90;;;;;;5011059;28;20382;-64
2022/05/20 08:20:30;;;;;;;0.68;0.68;;;23.50;99.90;;;;;;5009785;28;20026;-64
2022/05/20 08:22:57;;;;;;;3.67;1.05;;;23.60;99.90;;;;;;5011064;28;20022;-64
2022/05/20 08:25:25;;;;;;;0.85;0.63;;;23.50;99.90;;;;;;5010904;28;20105;-64
2022/05/20 08:27:52;;;;;;;0.38;0.38;;;23.50;99.90;;;;;;5010977;28;20088;-64
2022/05/20 08:30:23;;;;;;;2.15;1.63;;;23.60;99.90;;;;;;5009295;28;20113;-64
2022/05/20 08:32:49;;;;;;;0.22;0.20;;;23.80;99.90;;;;;;5009989;28;20025;-65
2022/05/20 08:35:16;;;;;;;0.28;0.22;;;24.10;99.90;;;;;;5005232;28;20022;-65
2022/05/20 08:37:45;;;;;;;0.30;0.30;;;24.10;99.90;;;;;;4989865;28;20027;-65
2022/05/20 08:40:29;;;;;;;0.30;0.30;;;24.30;99.90;;;;;;4990877;28;20030;-65
2022/05/20 08:42:58;;;;;;;0.90;0.57;;;24.40;99.90;;;;;;4991472;28;20030;-64
2022/05/20 08:45:29;;;;;;;0.82;0.70;;;24.50;99.90;;;;;;4989992;28;20026;-64
2022/05/20 08:47:56;;;;;;;;;;;24.60;99.90;;;;;;4990533;28;20038;-65
2022/05/20 08:50:37;;;;;;;0.20;0.15;;;24.40;99.90;;;;;;4989787;28;20324;-65
2022/05/20 08:53:06;;;;;;;;;;;24.60;99.90;;;;;;4990044;28;20036;-65
2022/05/20 08:55:32;;;;;;;3.13;0.82;;;24.90;99.90;;;;;;4989671;28;19910;-65
2022/05/20 08:58:01;;;;;;;0.70;0.70;;;25.00;99.90;;;;;;4991064;28;20041;-65
2022/05/20 09:00:29;;;;;;;2.05;1.15;;;25.00;99.90;;;;;;4989679;28;20027;-65
2022/05/20 09:02:56;;;;;;;0.20;0.20;;;25.00;99.90;;;;;;4990968;28;20034;-65
2022/05/20 09:05:30;;;;;;;0.77;0.50;;;25.00;99.90;;;;;;4990875;28;20030;-65
2022/05/20 09:08:14;;;;;;;3.65;0.98;;;25.10;99.90;;;;;;4990065;28;20034;-65
2022/05/20 09:10:54;;;;;;;0.38;0.35;;;25.20;99.90;;;;;;4991397;28;20041;-65
2022/05/20 09:15:43;;;;;;;0.38;0.30;;;25.30;99.90;;;;;;4993519;28;20302;-65
2022/05/20 09:16:14;;;;;;;0.40;0.40;;;25.40;99.90;;;;;;4994851;28;20096;-65
2022/05/20 09:18:43;;;;;;;0.85;0.57;;;25.50;99.90;;;;;;4994590;28;20117;-65
2022/05/20 09:21:23;;;;;;;0.32;0.30;;;25.70;99.90;;;;;;4993681;28;20034;-65
2022/05/20 09:23:55;;;;;;;0.28;0.28;;;26.00;98.90;;;;;;4995084;28;20042;-65
2022/05/20 09:26:25;;;;;;;0.73;0.57;;;25.90;97.70;;;;;;4994805;28;20557;-65
2022/05/20 09:29:35;;;;;;;0.68;0.60;;;26.00;97.70;;;;;;4994692;28;20088;-65
2022/05/20 09:32:05;;;;;;;3.92;1.60;;;26.10;98.20;;;;;;4993755;28;20039;-65
2022/05/20 09:34:38;;;;;;;0.45;0.32;;;26.10;97.40;;;;;;4993278;28;20076;-65
2022/05/20 09:37:14;;;;;;;0.10;0.10;;;26.10;97.80;;;;;;4993651;28;20030;-65
2022/05/20 09:39:43;;;;;;;0.60;0.60;;;26.10;97.10;;;;;;4993535;28;20030;-65
2022/05/20 09:42:26;;;;;;;0.50;0.43;;;26.30;97.40;;;;;;4988990;28;20065;-65
2022/05/20 09:45:00;;;;;;;0.63;0.47;;;26.50;96.90;;;;;;4982390;28;20496;-65
2022/05/20 09:47:47;;;;;;;1.50;0.70;;;26.70;96.90;;;;;;4989463;28;20044;-65
2022/05/20 09:50:28;;;;;;;0.10;0.10;;;26.80;97.30;;;;;;4989955;28;20034;-65
2022/05/20 09:52:59;;;;;;;;;;;27.00;96.00;;;;;;4994415;28;20092;-65
2022/05/20 09:55:40;;;;;;;4.10;2.40;;;27.00;96.30;;;;;;4993012;28;20296;-65
2022/05/20 09:58:30;;;;;;;1.67;0.50;;;26.80;95.70;;;;;;4994221;28;20042;-66
2022/05/20 10:01:05;;;;;;;0.80;0.63;;;26.90;96.30;;;;;;4993857;28;20038;-65
2022/05/20 10:03:39;;;;;;;8.38;2.58;;;27.10;96.20;;;;;;4992660;28;20046;-65
2022/05/20 10:06:29;;;;;;;0.68;0.50;;;27.30;95.90;;;;;;4993240;28;20377;-64
2022/05/20 10:09:16;;;;;;;1.70;1.25;;;27.40;95.60;;;;;;4992080;28;20026;-66
2022/05/20 10:12:07;;;;;;;0.20;0.20;;;27.30;95.30;;;;;;4993681;28;20827;-64
2022/05/20 10:14:56;;;;;;;0.57;0.57;;;27.20;95.90;;;;;;4992431;28;20038;-64
2022/05/20 10:18:04;;;;;;;0.28;0.28;;;27.00;95.70;;;;;;4993288;28;20474;-65
2022/05/20 10:20:37;;;;;;;1.77;0.75;;;27.10;95.70;;;;;;4972486;28;20043;-65
2022/05/20 10:23:11;;;;;;;4.97;1.48;;;27.30;96.40;;;;;;4991917;28;20026;-65
2022/05/20 10:26:06;;;;;;;0.50;0.30;;;27.60;95.90;;;;;;4992150;28;20104;-65
2022/05/20 10:34:53;;;;;;;1.73;0.95;;;27.70;95.10;;;;;;4992393;28;20114;-65
2022/05/20 10:37:31;;;;;;;1.10;1.00;;;28.00;95.50;;;;;;4992126;28;20495;-65
2022/05/20 10:40:33;;;;;;;0.98;0.47;;;28.00;94.10;;;;;;4993358;28;20074;-65
2022/05/20 10:43:29;;;;;;;1.90;0.98;;;28.10;94.80;;;;;;4992899;28;20407;-65
2022/05/20 10:49:08;;;;;;;0.32;0.32;;;28.30;94.80;;;;;;4991359;28;20037;-65
2022/05/20 10:52:41;;;;;;;0.32;0.32;;;28.00;95.00;;;;;;4992946;28;20387;-65
2022/05/20 10:55:25;;;;;;;0.90;0.65;;;28.50;95.00;;;;;;4980795;28;20450;-65
2022/05/20 10:58:28;;;;;;;1.25;0.68;;;28.90;93.50;;;;;;4992779;28;20181;-65
2022/05/20 11:00:55;;;;;;;1.08;0.65;;;28.40;94.60;;;;;;4973635;28;20073;-65
2022/05/20 11:04:14;;;;;;;0.38;0.38;;;28.80;94.40;;;;;;4982941;28;20030;-65
2022/05/20 11:07:01;;;;;;;0.10;0.10;;;28.40;94.30;;;;;;4971502;28;20462;-65
2022/05/20 11:10:12;;;;;;;0.80;0.60;;;28.50;93.20;;;;;;4991284;28;20129;-65
2022/05/20 11:13:09;;;;;;;0.32;0.15;;;28.40;92.50;;;;;;4981977;28;20093;-65
2022/05/20 11:15:58;;;;;;;14.43;2.35;;;28.10;93.10;;;;;;4990288;28;20034;-65
2022/05/20 11:18:53;;;;;;;1.17;0.95;;;27.80;94.90;;;;;;4990310;28;20042;-66
2022/05/20 11:21:39;;;;;;;0.30;0.20;;;27.60;94.90;;;;;;4992348;28;20030;-65
2022/05/20 11:24:17;;;;;;;1.27;0.68;;;27.60;95.30;;;;;;4992085;28;20038;-65
2022/05/20 11:27:20;;;;;;;0.50;0.45;;;27.50;95.40;;;;;;4992060;28;20566;-64
2022/05/20 11:30:25;;;;;;;0.50;0.43;;;27.60;95.00;;;;;;4991676;28;20049;-64
2022/05/20 11:33:41;;;;;;;1.23;1.00;;;28.00;94.50;;;;;;4990858;28;20052;-65
2022/05/20 11:36:37;;;;;;;10.23;1.02;;;28.60;94.10;;;;;;4984944;28;20034;-65
2022/05/20 11:39:18;;;;;;;0.52;0.52;;;28.40;93.60;;;;;;4990652;28;20097;-65
2022/05/20 11:42:03;;;;;;;0.73;0.50;;;28.70;93.40;;;;;;4992264;28;20097;-66
2022/05/20 11:45:17;;;;;;;0.47;0.30;;;29.00;93.00;;;;;;4988932;28;20557;-66
2022/05/20 11:47:58;;;;;;;0.52;0.38;;;28.90;92.40;;;;;;4991659;28;20670;-65
2022/05/20 11:51:06;;;;;;;0.43;0.40;;;29.00;93.10;;;;;;4991837;28;20089;-65
2022/05/20 11:54:01;;;;;;;0.45;0.35;;;29.50;91.20;;;;;;4985429;28;20046;-65
2022/05/20 11:56:53;;;;;;;1.52;0.65;;;29.60;90.10;;;;;;4990590;28;20026;-64
2022/05/20 11:59:39;;;;;;;0.57;0.20;;;29.60;90.50;;;;;;4986952;28;20035;-65
2022/05/20 12:02:18;;;;;;;0.95;0.43;;;29.60;90.10;;;;;;4974580;28;20045;-65
2022/05/20 12:04:47;;;;;;;7.45;2.45;;;29.70;88.70;;;;;;4991145;28;20049;-65
2022/05/20 12:07:17;;;;;;;3.42;1.45;;;29.70;89.80;;;;;;4991250;28;20196;-65
2022/05/20 12:09:57;;;;;;;4.38;1.02;;;30.00;88.80;;;;;;4987447;28;20493;-65
2022/05/20 12:12:50;;;;;;;3.83;0.47;;;30.40;86.00;;;;;;4989838;28;20569;-66
2022/05/20 12:15:19;;;;;;;0.63;0.50;;;30.80;86.20;;;;;;4990177;28;20038;-66
2022/05/20 12:17:51;;;;;;;0.15;0.05;;;30.70;85.40;;;;;;4991349;28;20088;-66
2022/05/20 12:26:51;;;;;;;2.30;0.65;;;31.00;83.30;;;;;;4991258;28;20037;-65
2022/05/20 12:29:35;;;;;;;3.25;1.83;;;31.10;83.70;;;;;;4986222;28;20034;-65
2022/05/20 12:32:36;;;;;;;1.35;1.23;;;31.40;82.70;;;;;;4991269;28;20038;-65
2022/05/20 12:35:18;;;;;;;0.77;0.30;;;31.50;80.50;;;;;;4984540;28;20042;-65
2022/05/20 12:37:43;;;;;;;0.00;0.00;;;31.20;80.30;;;;;;4980613;28;20054;-65
2022/05/20 12:40:26;;;;;;;0.30;0.30;;;31.20;79.80;;;;;;4982565;28;20501;-65
2022/05/20 12:43:09;;;;;;;0.57;0.40;;;31.50;79.80;;;;;;4987621;28;20469;-65
2022/05/20 12:45:47;;;;;;;1.50;0.63;;;31.40;79.40;;;;;;4981797;28;20033;-65
2022/05/20 12:48:16;;;;;;;0.43;0.43;;;31.20;80.50;;;;;;4976895;28;20117;-65
2022/05/20 12:50:42;;;;;;;0.10;0.10;;;31.30;78.90;;;;;;4987566;28;20041;-66
2022/05/20 12:53:12;;;;;;;6.72;0.98;;;31.30;78.60;;;;;;4987401;28;20034;-66
2022/05/20 12:55:45;;;;;;;0.30;0.13;;;31.00;80.50;;;;;;4980808;28;20112;-66
2022/05/20 12:58:16;;;;;;;0.20;0.20;;;30.90;80.90;;;;;;4985269;28;20038;-64
2022/05/20 13:00:50;;;;;;;1.08;0.93;;;31.10;79.60;;;;;;4990394;28;20105;-65
2022/05/20 13:03:37;;;;;;;0.60;0.40;;;31.10;80.90;;;;;;4988879;28;20049;-65
2022/05/20 13:06:21;;;;;;;11.20;1.08;;;31.00;80.20;;;;;;4981710;28;20176;-65
2022/05/20 13:08:56;;;;;;;1.52;1.42;;;31.00;79.90;;;;;;4989760;28;20619;-65
2022/05/20 13:11:23;;;;;;;3.00;1.13;;;30.50;81.00;;;;;;4971221;28;20502;-65
2022/05/20 13:13:58;;;;;;;0.20;0.10;;;30.30;82.10;;;;;;4984748;28;20046;-65
2022/05/20 13:16:25;;;;;;;0.75;0.25;;;30.40;81.50;;;;;;4990746;28;20168;-65
2022/05/20 13:19:08;;;;;;;0.73;0.73;;;30.50;81.20;;;;;;4989237;28;20031;-65
2022/05/20 13:21:53;;;;;;;0.75;0.57;;;30.50;81.30;;;;;;4989015;28;20034;-65
2022/05/20 13:24:29;;;;;;;0.10;0.10;;;30.40;81.50;;;;;;4988884;28;20034;-65
2022/05/20 13:27:17;;;;;;;0.30;0.30;;;30.30;82.10;;;;;;4990453;28;20574;-66
2022/05/20 13:29:45;;;;;;;0.80;0.80;;;30.10;82.80;;;;;;4989897;28;20426;-65
2022/05/20 13:32:16;;;;;;;0.88;0.38;;;30.20;85.10;;;;;;4989245;28;20034;-65
2022/05/20 13:34:49;;;;;;;0.10;0.10;;;30.10;85.70;;;;;;4988821;28;20038;-65
2022/05/20 13:37:25;;;;;;;0.10;0.10;;;29.90;82.80;;;;;;4990323;28;20491;-67
2022/05/20 13:40:06;;;;;;;2.38;0.85;;;29.90;82.90;;;;;;4984796;28;20041;-66
2022/05/20 13:42:33;;;;;;;0.50;0.47;;;30.10;83.50;;;;;;4988740;28;20038;-65
2022/05/20 13:45:07;;;;;;;0.22;0.13;;;30.50;82.30;;;;;;4990228;28;20041;-65
2022/05/20 13:50:22;;;;;;;0.75;0.73;;;31.00;80.20;;;;;;4988692;28;20127;-65
2022/05/20 13:52:49;;;;;;;0.47;0.32;;;31.00;79.40;;;;;;4988824;28;20030;-65
2022/05/20 13:55:17;;;;;;;0.55;0.45;;;30.60;79.50;;;;;;4990119;28;20026;-65
2022/05/20 13:57:53;;;;;;;0.20;0.13;;;30.20;80.90;;;;;;4990904;28;20045;-66
2022/05/20 14:00:34;;;;;;;0.73;0.57;;;29.80;81.70;;;;;;4985502;28;20622;-65
2022/05/20 14:03:28;;;;;;;0.95;0.90;;;29.90;81.70;;;;;;4983194;28;20441;-65